createdAt,value
2022-08-22T00:02:27.434Z,22.33
2022-08-22T00:02:58.169Z,24.20
2022-08-22T00:05:03.656Z,22.32
2022-08-22T00:07:41.976Z,22.27
2022-08-22T00:10:24.989Z,21.62
2022-08-22T00:13:04.339Z,22.18
2022-08-22T00:15:42.860Z,22.18
2022-08-22T00:18:19.445Z,22.13
2022-08-22T00:20:50.496Z,22.05
2022-08-22T00:23:24.132Z,21.96
2022-08-22T00:25:57.295Z,22.05
2022-08-22T00:28:32.330Z,22.01
2022-08-22T00:31:08.444Z,21.91
2022-08-22T00:33:42.546Z,21.86
2022-08-22T00:36:25.366Z,21.83
2022-08-22T00:39:01.683Z,21.56
2022-08-22T00:41:53.718Z,21.84
2022-08-22T00:44:41.857Z,21.77
2022-08-22T00:47:25.750Z,21.66
2022-08-22T00:50:08.709Z,21.71
2022-08-22T00:53:00.728Z,21.70
2022-08-22T00:55:42.205Z,21.71
2022-08-22T00:58:33.472Z,21.68
2022-08-22T01:01:06.823Z,21.61
2022-08-22T01:04:08.113Z,21.58
2022-08-22T01:06:43.602Z,21.59
2022-08-22T01:09:23.804Z,21.27
2022-08-22T01:12:11.865Z,21.62
2022-08-22T01:14:49.033Z,21.61
2022-08-22T01:18:06.809Z,21.53
2022-08-22T01:21:13.523Z,21.42
2022-08-22T01:24:09.229Z,21.52
2022-08-22T01:27:04.822Z,21.57
2022-08-22T01:30:11.240Z,21.60
2022-08-22T01:33:32.594Z,21.50
2022-08-22T01:36:31.025Z,21.53
2022-08-22T01:39:37.265Z,21.49
2022-08-22T01:42:28.440Z,21.48
2022-08-22T01:45:19.590Z,21.44
2022-08-22T01:47:54.524Z,21.34
2022-08-22T01:50:26.643Z,21.46
2022-08-22T01:53:04.782Z,21.42
2022-08-22T01:55:36.188Z,21.35
2022-08-22T01:58:16.726Z,21.34
2022-08-22T02:01:17.596Z,21.32
2022-08-22T02:04:00.326Z,21.35
2022-08-22T02:06:39.519Z,21.28
2022-08-22T02:09:13.834Z,21.25
2022-08-22T02:11:52.047Z,21.29
2022-08-22T02:14:30.607Z,21.30
2022-08-22T02:17:12.155Z,21.23
2022-08-22T02:19:50.804Z,21.30
2022-08-22T02:22:30.521Z,21.00
2022-08-22T02:25:09.804Z,21.29
2022-08-22T02:27:48.242Z,21.29
2022-08-22T02:30:20.092Z,21.31
2022-08-22T02:32:59.308Z,21.33
2022-08-22T02:35:32.462Z,21.31
2022-08-22T02:38:22.452Z,21.31
2022-08-22T02:41:02.726Z,21.31
2022-08-22T02:43:40.886Z,21.35
2022-08-22T02:46:19.976Z,21.11
2022-08-22T02:48:57.276Z,21.32
2022-08-22T02:51:33.145Z,21.34
2022-08-22T02:54:14.493Z,21.32
2022-08-22T02:56:53.497Z,21.31
2022-08-22T02:59:33.614Z,21.30
2022-08-22T03:02:30.702Z,21.21
2022-08-22T03:05:01.857Z,21.19
2022-08-22T03:07:40.328Z,21.21
2022-08-22T03:10:18.149Z,21.16
2022-08-22T03:12:58.418Z,21.11
2022-08-22T03:15:34.072Z,21.13
2022-08-22T03:18:06.482Z,21.11
2022-08-22T03:20:43.587Z,21.06
2022-08-22T03:23:23.614Z,21.00
2022-08-22T03:25:57.451Z,20.86
2022-08-22T03:28:32.462Z,20.93
2022-08-22T03:31:08.864Z,20.74
2022-08-22T03:33:36.720Z,20.89
2022-08-22T03:36:11.194Z,20.87
2022-08-22T03:38:52.913Z,20.80
2022-08-22T03:41:46.863Z,20.73
2022-08-22T03:44:39.847Z,20.66
2022-08-22T03:47:31.739Z,20.67
2022-08-22T03:50:20.239Z,20.62
2022-08-22T03:53:23.152Z,20.58
2022-08-22T03:56:20.595Z,20.55
2022-08-22T03:59:24.257Z,20.55
2022-08-22T04:02:43.501Z,20.66
2022-08-22T04:05:45.578Z,20.56
2022-08-22T04:09:00.072Z,20.54
2022-08-22T04:11:50.732Z,20.55
2022-08-22T04:14:37.287Z,20.58
2022-08-22T04:17:41.761Z,20.57
2022-08-22T04:20:27.931Z,20.70
2022-08-22T04:23:36.719Z,20.77
2022-08-22T04:26:16.440Z,20.84
2022-08-22T04:28:49.254Z,20.76
2022-08-22T04:31:23.431Z,20.88
2022-08-22T04:33:58.412Z,20.87
2022-08-22T04:36:30.732Z,20.83
2022-08-22T04:39:06.551Z,20.74
2022-08-22T04:41:46.572Z,20.78
2022-08-22T04:44:19.824Z,20.84
2022-08-22T04:46:57.235Z,20.82
2022-08-22T04:49:33.923Z,20.86
2022-08-22T04:52:16.624Z,20.86
2022-08-22T04:54:58.465Z,20.84
2022-08-22T04:57:36.855Z,20.86
2022-08-22T05:00:09.010Z,20.87
2022-08-22T05:02:42.331Z,20.87
2022-08-22T05:05:20.958Z,20.88
2022-08-22T05:07:51.641Z,20.84
2022-08-22T05:10:25.963Z,20.87
2022-08-22T05:13:00.442Z,20.69
2022-08-22T05:15:32.455Z,20.82
2022-08-22T05:18:07.477Z,20.69
2022-08-22T05:20:37.306Z,20.81
2022-08-22T05:23:17.427Z,20.80
2022-08-22T05:25:48.055Z,20.83
2022-08-22T05:28:31.315Z,20.84
2022-08-22T05:30:59.785Z,20.87
2022-08-22T05:33:32.462Z,20.92
2022-08-22T05:36:05.562Z,20.90
2022-08-22T05:38:38.403Z,20.98
2022-08-22T05:41:10.135Z,21.02
2022-08-22T05:43:40.127Z,21.03
2022-08-22T05:46:13.609Z,21.00
2022-08-22T05:48:47.987Z,21.13
2022-08-22T05:51:21.583Z,21.11
2022-08-22T05:53:57.143Z,21.15
2022-08-22T05:56:36.224Z,21.20
2022-08-22T05:59:13.047Z,21.19
2022-08-22T06:01:51.940Z,21.26
2022-08-22T06:04:29.011Z,21.25
2022-08-22T06:07:00.585Z,21.32
2022-08-22T06:09:34.868Z,21.34
2022-08-22T06:12:18.161Z,21.38
2022-08-22T06:15:00.999Z,21.40
2022-08-22T06:17:35.908Z,21.41
2022-08-22T06:20:09.137Z,21.49
2022-08-22T06:22:42.175Z,21.54
2022-08-22T06:25:14.732Z,21.61
2022-08-22T06:27:44.430Z,21.59
2022-08-22T06:30:16.292Z,21.61
2022-08-22T06:32:59.238Z,21.64
2022-08-22T06:35:54.694Z,21.66
2022-08-22T06:38:28.434Z,21.64
2022-08-22T06:41:00.472Z,21.64
2022-08-22T06:43:38.549Z,21.62
2022-08-22T06:46:07.260Z,21.66
2022-08-22T06:48:37.191Z,21.60
2022-08-22T06:51:08.647Z,21.70
2022-08-22T06:53:47.632Z,21.69
2022-08-22T06:56:22.261Z,21.71
2022-08-22T06:58:53.574Z,21.70
2022-08-22T07:01:24.089Z,21.68
2022-08-22T07:03:54.914Z,21.70
2022-08-22T07:06:30.866Z,21.74
2022-08-22T07:08:59.341Z,21.75
2022-08-22T07:11:38.563Z,21.68
2022-08-22T07:14:11.531Z,21.82
2022-08-22T07:16:43.702Z,21.89
2022-08-22T07:19:23.691Z,21.90
2022-08-22T07:21:53.422Z,21.96
2022-08-22T07:24:25.774Z,21.99
2022-08-22T07:27:08.965Z,22.02
2022-08-22T07:29:47.756Z,22.03
2022-08-22T07:32:20.375Z,22.07
2022-08-22T07:35:01.887Z,22.09
2022-08-22T07:37:48.187Z,22.13
2022-08-22T07:40:24.729Z,22.20
2022-08-22T07:42:59.707Z,22.14
2022-08-22T07:45:35.915Z,22.26
2022-08-22T07:48:25.383Z,22.13
2022-08-22T07:51:02.044Z,22.25
2022-08-22T07:53:41.253Z,22.36
2022-08-22T07:56:14.261Z,22.40
2022-08-22T07:58:45.434Z,22.48
2022-08-22T08:01:21.833Z,22.57
2022-08-22T08:03:54.567Z,22.60
2022-08-22T08:06:24.917Z,22.59
2022-08-22T08:08:55.810Z,22.58
2022-08-22T08:11:26.962Z,22.74
2022-08-22T08:14:00.587Z,22.77
2022-08-22T08:16:32.238Z,22.86
2022-08-22T08:19:01.966Z,22.88
2022-08-22T08:21:36.140Z,22.88
2022-08-22T08:24:09.098Z,22.96
2022-08-22T08:27:02.127Z,22.97
2022-08-22T08:29:30.079Z,22.98
2022-08-22T08:31:59.300Z,22.99
2022-08-22T08:34:29.029Z,23.01
2022-08-22T08:37:02.178Z,23.06
2022-08-22T08:39:36.210Z,23.05
2022-08-22T08:42:54.022Z,23.04
2022-08-22T08:45:37.430Z,23.11
2022-08-22T08:48:18.227Z,23.10
2022-08-22T08:51:02.121Z,23.10
2022-08-22T08:53:46.553Z,22.96
2022-08-22T08:56:25.657Z,23.12
2022-08-22T08:59:10.075Z,23.19
2022-08-22T09:02:20.366Z,23.27
2022-08-22T09:05:19.855Z,23.31
2022-08-22T09:08:05.496Z,23.37
2022-08-22T09:11:04.778Z,23.50
2022-08-22T09:13:56.563Z,23.56
2022-08-22T09:16:59.056Z,23.57
2022-08-22T09:19:57.549Z,23.66
2022-08-22T09:23:04.307Z,23.78
2022-08-22T09:25:43.919Z,23.84
2022-08-22T09:28:17.427Z,23.87
2022-08-22T09:31:22.732Z,23.84
2022-08-22T09:34:05.205Z,23.94
2022-08-22T09:36:43.587Z,24.16
2022-08-22T09:39:17.927Z,24.25
2022-08-22T09:41:54.149Z,24.13
2022-08-22T09:44:34.314Z,24.34
2022-08-22T09:47:24.483Z,24.48
2022-08-22T09:50:04.870Z,24.45
2022-08-22T09:52:57.893Z,24.48
2022-08-22T09:55:45.184Z,24.48
2022-08-22T09:58:25.954Z,24.19
2022-08-22T10:01:00.674Z,24.50
2022-08-22T10:03:53.592Z,24.46
2022-08-22T10:06:25.978Z,24.59
2022-08-22T10:09:03.351Z,24.62
2022-08-22T10:11:38.920Z,24.84
2022-08-22T10:14:22.183Z,25.02
2022-08-22T10:17:03.513Z,25.15
2022-08-22T10:19:39.064Z,25.18
2022-08-22T10:22:20.317Z,25.25
2022-08-22T10:24:59.939Z,25.15
2022-08-22T10:27:43.691Z,25.07
2022-08-22T10:30:18.385Z,25.39
2022-08-22T10:32:53.486Z,25.92
2022-08-22T10:35:29.340Z,26.46
2022-08-22T10:38:07.112Z,26.86
2022-08-22T10:40:43.123Z,26.91
2022-08-22T10:43:15.639Z,26.69
2022-08-22T10:45:47.730Z,26.58
2022-08-22T10:48:35.615Z,26.76
2022-08-22T10:51:19.739Z,27.17
2022-08-22T10:54:02.350Z,27.61
2022-08-22T10:56:35.463Z,27.90
2022-08-22T10:59:16.259Z,28.15
2022-08-22T11:01:51.498Z,28.41
2022-08-22T11:04:35.513Z,28.12
2022-08-22T11:07:18.671Z,27.98
2022-08-22T11:09:57.651Z,27.76
2022-08-22T11:12:34.650Z,27.72
2022-08-22T11:15:12.955Z,27.81
2022-08-22T11:18:16.680Z,27.81
2022-08-22T11:20:56.535Z,27.91
2022-08-22T11:23:38.838Z,28.01
2022-08-22T11:26:30.125Z,27.97
2022-08-22T11:29:24.146Z,27.99
2022-08-22T11:32:06.125Z,28.00
2022-08-22T11:34:50.161Z,27.93
2022-08-22T11:37:42.171Z,27.86
2022-08-22T11:40:29.046Z,28.03
2022-08-22T11:43:03.746Z,28.11
2022-08-22T11:45:40.373Z,28.48
2022-08-22T11:48:19.881Z,28.84
2022-08-22T11:50:52.154Z,29.01
2022-08-22T11:53:32.871Z,28.91
2022-08-22T11:56:16.205Z,28.70
2022-08-22T11:58:53.384Z,28.68
2022-08-22T12:01:34.378Z,29.13
2022-08-22T12:04:10.743Z,29.38
2022-08-22T12:06:56.123Z,29.80
2022-08-22T12:09:40.392Z,30.25
2022-08-22T12:12:34.909Z,30.50
2022-08-22T12:15:12.614Z,31.08
2022-08-22T12:18:20.019Z,30.75
2022-08-22T12:21:17.402Z,30.47
2022-08-22T12:23:57.152Z,30.30
2022-08-22T12:26:34.415Z,30.11
2022-08-22T12:29:19.126Z,30.30
2022-08-22T12:32:28.348Z,30.00
2022-08-22T12:35:14.609Z,30.20
2022-08-22T12:37:52.760Z,30.24
2022-08-22T12:40:34.778Z,30.40
2022-08-22T12:43:29.349Z,29.98
2022-08-22T12:46:16.287Z,29.74
2022-08-22T12:49:00.340Z,29.49
2022-08-22T12:51:44.759Z,29.33
2022-08-22T12:54:45.893Z,29.25
2022-08-22T12:57:25.082Z,29.08
2022-08-22T12:59:58.133Z,29.02
2022-08-22T13:02:32.022Z,29.01
2022-08-22T13:05:09.137Z,28.90
2022-08-22T13:07:38.567Z,28.74
2022-08-22T13:10:33.100Z,28.62
2022-08-22T13:13:11.804Z,28.46
2022-08-22T13:15:53.675Z,28.40
2022-08-22T13:18:31.258Z,28.35
2022-08-22T13:21:03.642Z,28.28
2022-08-22T13:23:39.777Z,28.27
2022-08-22T13:26:16.328Z,28.22
2022-08-22T13:31:59.171Z,28.22
2022-08-22T13:34:40.080Z,28.15
2022-08-22T13:37:15.799Z,28.15
2022-08-22T13:39:46.823Z,28.13
2022-08-22T13:42:30.603Z,28.10
2022-08-22T13:45:04.868Z,27.96
2022-08-22T13:47:39.885Z,27.95
2022-08-22T13:50:19.074Z,27.95
2022-08-22T13:52:55.178Z,28.08
2022-08-22T13:55:34.037Z,28.09
2022-08-22T13:58:11.116Z,28.15
2022-08-22T14:01:28.370Z,28.12
2022-08-22T14:04:00.849Z,28.08
2022-08-22T14:06:41.360Z,28.16
2022-08-22T14:09:31.864Z,28.28
2022-08-22T14:12:12.185Z,28.38
2022-08-22T14:14:43.170Z,28.35
2022-08-22T14:17:19.503Z,28.29
2022-08-22T14:19:59.586Z,28.20
2022-08-22T14:22:35.097Z,28.11
2022-08-22T14:25:07.219Z,27.96
2022-08-22T14:27:39.873Z,27.88
2022-08-22T14:30:16.280Z,27.84
2022-08-22T14:32:50.562Z,27.78
2022-08-22T14:35:34.958Z,27.76
2022-08-22T14:38:27.274Z,27.73
2022-08-22T14:41:03.406Z,27.70
2022-08-22T14:43:49.271Z,27.64
2022-08-22T14:46:26.435Z,27.69
2022-08-22T14:49:24.785Z,27.87
2022-08-22T14:52:00.507Z,27.92
2022-08-22T14:54:31.078Z,27.99
2022-08-22T14:57:00.910Z,28.01
2022-08-22T14:59:41.208Z,28.02
2022-08-22T15:02:17.112Z,28.06
2022-08-22T15:04:52.616Z,28.04
2022-08-22T15:07:36.034Z,27.97
2022-08-22T15:10:20.768Z,27.96
2022-08-22T15:12:53.752Z,28.00
2022-08-22T15:15:33.548Z,27.96
2022-08-22T15:18:20.122Z,27.91
2022-08-22T15:20:52.086Z,27.87
2022-08-22T15:23:22.956Z,27.88
2022-08-22T15:26:01.689Z,27.93
2022-08-22T15:28:49.719Z,27.98
2022-08-22T15:31:21.595Z,28.17
2022-08-22T15:33:51.235Z,28.24
2022-08-22T15:36:22.549Z,28.32
2022-08-22T15:38:53.858Z,28.27
2022-08-22T15:41:46.125Z,28.19
2022-08-22T15:44:32.463Z,28.05
2022-08-22T15:47:10.803Z,27.99
2022-08-22T15:49:50.409Z,27.92
2022-08-22T15:52:25.837Z,27.81
2022-08-22T15:55:21.191Z,27.80
2022-08-22T15:58:00.036Z,27.74
2022-08-22T16:00:34.299Z,27.67
2022-08-22T16:03:06.978Z,27.59
2022-08-22T16:05:50.771Z,27.53
2022-08-22T16:08:26.638Z,27.50
2022-08-22T16:11:17.947Z,27.49
2022-08-22T16:13:48.148Z,27.44
2022-08-22T16:16:57.818Z,27.47
2022-08-22T16:19:27.239Z,27.43
2022-08-22T16:22:12.631Z,27.40
2022-08-22T16:25:04.124Z,27.30
2022-08-22T16:27:32.821Z,27.27
2022-08-22T16:30:09.322Z,27.30
2022-08-22T16:35:13.588Z,27.21
2022-08-22T16:37:48.473Z,27.18
2022-08-22T16:40:27.076Z,27.13
2022-08-22T16:43:16.282Z,27.08
2022-08-22T16:45:48.532Z,27.06
2022-08-22T16:48:36.387Z,26.81
2022-08-22T16:51:18.428Z,26.90
2022-08-22T16:54:34.373Z,26.97
2022-08-22T16:57:15.130Z,26.98
2022-08-22T17:00:02.139Z,27.01
2022-08-22T17:02:55.687Z,26.94
2022-08-22T17:05:40.547Z,26.89
2022-08-22T17:08:30.885Z,26.83
2022-08-22T17:11:12.240Z,26.87
2022-08-22T17:14:01.444Z,26.85
2022-08-22T17:16:50.889Z,26.82
2022-08-22T17:19:36.316Z,26.42
2022-08-22T17:22:11.939Z,27.03
2022-08-22T17:24:47.046Z,27.00
2022-08-22T17:27:24.362Z,26.99
2022-08-22T17:30:02.292Z,27.03
2022-08-22T17:32:41.592Z,26.95
2022-08-22T17:35:21.967Z,26.92
2022-08-22T17:38:01.878Z,26.79
2022-08-22T17:40:42.854Z,26.93
2022-08-22T17:43:39.973Z,26.87
2022-08-22T17:46:31.317Z,26.79
2022-08-22T17:49:09.868Z,26.59
2022-08-22T17:51:47.212Z,26.68
2022-08-22T17:54:21.638Z,26.53
2022-08-22T17:57:05.194Z,26.53
2022-08-22T17:59:40.680Z,26.47
2022-08-22T18:02:16.232Z,26.41
2022-08-22T18:04:52.305Z,26.43
2022-08-22T18:07:32.216Z,26.41
2022-08-22T18:10:05.007Z,26.32
2022-08-22T18:12:41.006Z,26.35
2022-08-22T18:15:19.662Z,26.31
2022-08-22T18:17:54.189Z,26.33
2022-08-22T18:20:27.100Z,26.32
2022-08-22T18:23:01.939Z,26.15
2022-08-22T18:25:42.428Z,26.30
2022-08-22T18:28:22.656Z,26.30
2022-08-22T18:30:57.355Z,26.20
2022-08-22T18:33:32.793Z,26.25
2022-08-22T18:36:10.472Z,26.14
2022-08-22T18:38:50.942Z,26.01
2022-08-22T18:41:27.427Z,26.12
2022-08-22T18:43:56.756Z,26.04
2022-08-22T18:46:39.666Z,26.01
2022-08-22T18:49:16.027Z,25.97
2022-08-22T18:51:44.360Z,25.93
2022-08-22T18:54:37.116Z,25.92
2022-08-22T18:57:26.415Z,25.91
2022-08-22T19:00:09.475Z,25.87
2022-08-22T19:03:03.634Z,25.79
2022-08-22T19:05:47.462Z,25.84
2022-08-22T19:08:54.227Z,25.85
2022-08-22T19:11:42.068Z,25.79
2022-08-22T19:14:41.667Z,25.77
2022-08-22T19:17:33.141Z,25.75
2022-08-22T19:20:22.446Z,25.70
2022-08-22T19:22:53.103Z,25.47
2022-08-22T19:25:26.615Z,25.60
2022-08-22T19:28:25.240Z,25.55
2022-08-22T19:31:16.560Z,25.52
2022-08-22T19:33:49.588Z,25.48
2022-08-22T19:36:32.455Z,25.41
2022-08-22T19:39:03.690Z,25.27
2022-08-22T19:41:57.048Z,25.33
2022-08-22T19:44:51.139Z,25.23
2022-08-22T19:47:32.722Z,25.19
2022-08-22T19:50:05.412Z,25.13
2022-08-22T19:52:48.059Z,25.08
2022-08-22T19:55:23.727Z,25.03
2022-08-22T19:58:00.434Z,24.96
2022-08-22T20:00:52.803Z,24.95
2022-08-22T20:03:32.989Z,24.90
2022-08-22T20:06:22.073Z,24.87
2022-08-22T20:09:09.351Z,24.82
2022-08-22T20:11:45.449Z,24.80
2022-08-22T20:14:26.564Z,24.76
2022-08-22T20:17:10.323Z,24.73
2022-08-22T20:20:16.376Z,24.70
2022-08-22T20:22:37.064Z,24.64
2022-08-22T20:25:20.705Z,24.54
2022-08-22T20:28:03.907Z,24.61
2022-08-22T20:30:38.782Z,24.60
2022-08-22T20:33:10.666Z,24.57
2022-08-22T20:35:43.049Z,24.56
2022-08-22T20:38:18.479Z,24.57
2022-08-22T20:41:00.611Z,24.55
2022-08-22T20:43:35.214Z,24.50
2022-08-22T20:46:13.006Z,24.42
2022-08-22T20:48:44.545Z,24.51
2022-08-22T20:51:16.537Z,24.55
2022-08-22T20:53:52.592Z,24.54
2022-08-22T20:56:33.943Z,24.53
2022-08-22T20:59:13.583Z,24.50
2022-08-22T21:01:41.722Z,24.49
2022-08-22T21:04:11.596Z,24.49
2022-08-22T21:06:39.403Z,24.35
2022-08-22T21:09:45.655Z,24.45
2022-08-22T21:12:14.239Z,24.41
2022-08-22T21:14:46.180Z,24.35
2022-08-22T21:17:19.475Z,24.37
2022-08-22T21:19:48.923Z,24.36
2022-08-22T21:22:19.126Z,24.32
2022-08-22T21:24:47.192Z,24.30
2022-08-22T21:27:21.919Z,24.29
2022-08-22T21:29:49.838Z,24.27
2022-08-22T21:32:33.018Z,24.27
2022-08-22T21:35:04.143Z,24.14
2022-08-22T21:37:39.742Z,23.99
2022-08-22T21:40:16.925Z,24.19
2022-08-22T21:42:47.244Z,24.19
2022-08-22T21:45:28.403Z,24.08
2022-08-22T21:47:56.382Z,24.02
2022-08-22T21:50:34.706Z,24.03
2022-08-22T21:53:10.245Z,24.00
2022-08-22T21:55:42.882Z,24.12
2022-08-22T21:58:37.003Z,24.10
2022-08-22T22:01:28.840Z,24.05
2022-08-22T22:03:58.319Z,24.04
2022-08-22T22:06:28.496Z,23.89
2022-08-22T22:08:56.744Z,23.98
2022-08-22T22:11:24.598Z,23.93
2022-08-22T22:13:52.582Z,23.90
2022-08-22T22:16:25.960Z,23.81
2022-08-22T22:18:53.817Z,23.83
2022-08-22T22:21:22.054Z,23.80
2022-08-22T22:23:52.431Z,23.78
2022-08-22T22:26:20.968Z,23.74
2022-08-22T22:28:50.338Z,23.68
2022-08-22T22:31:19.626Z,23.69
2022-08-22T22:33:47.479Z,23.69
2022-08-22T22:36:19.318Z,23.64
2022-08-22T22:38:47.831Z,23.65
2022-08-22T22:41:17.013Z,23.66
2022-08-22T22:43:44.782Z,23.63
2022-08-22T22:46:12.591Z,23.59
2022-08-22T22:48:40.360Z,23.56
2022-08-22T22:51:09.884Z,23.57
2022-08-22T22:53:42.541Z,23.40
2022-08-22T22:56:13.305Z,23.54
2022-08-22T22:58:42.625Z,23.52
2022-08-22T23:01:11.759Z,23.51
2022-08-22T23:03:39.670Z,23.51
2022-08-22T23:06:12.161Z,23.49
2022-08-22T23:08:39.975Z,23.47
2022-08-22T23:11:10.958Z,23.37
2022-08-22T23:13:39.633Z,23.42
2022-08-22T23:16:12.819Z,23.21
2022-08-22T23:18:40.921Z,23.35
2022-08-22T23:21:13.372Z,23.34
2022-08-22T23:23:41.323Z,23.33
2022-08-22T23:26:09.801Z,23.14
2022-08-22T23:28:37.812Z,23.21
2022-08-22T23:31:19.048Z,23.13
2022-08-22T23:33:47.399Z,23.09
2022-08-22T23:36:17.198Z,23.02
2022-08-22T23:38:45.444Z,23.04
2022-08-22T23:41:15.234Z,22.96
2022-08-22T23:43:44.904Z,22.82
2022-08-22T23:46:13.773Z,23.09
2022-08-22T23:48:43.511Z,23.05
2022-08-22T23:51:12.527Z,22.97
2022-08-22T23:53:40.887Z,22.96
2022-08-22T23:56:19.449Z,22.96
2022-08-22T23:58:49.304Z,22.99
